^^
Meteo Knjazevac Station Historical Data
Daily Summary for August 7, 2021 Units:  Both    English   Metric
Daily Weekly Monthly Yearly Custom
  High: Low: Average:
Temperature: 56.3 °F /  13.5 °C 50.7 °F /  10.4 °C 52.9 °F /  11.6 °C
Dew Point: 51.2 °F /  10.7 °C 46.1 °F /  7.8 °C 48.4 °F /  9.1 °C
Humidity: 90% 77% 85%
Wind Speed: 8mph /  12.9km/h - 3.6mph /  5.8km/h
Wind Gust: 22mph /  35.4km/h - -
Wind- - East
Pressure: 30.22 in /  1023.2 hPa 30.16 in /  1021.2 hPa -
Precipitation: 0.03 in /  0.76 mm    
Historical Graphs
 
 
Tabular Data for August 7, 2021
Time Temperature Dew Point Pressure Wind Wind Speed Wind Gust Humidity Rainfall Rate (Hourly) solar Conditions
00:00 52 °F /  11.1 °C 47 °F /  8.3 °C 30.19in /  1022.2hPa East 1mph /  1.6km/h 2mph /  3.2km/h 83% 0.00in /  0mm 0 W/m2
00:10 51.6 °F /  10.9 °C 46.6 °F /  8.1 °C 30.18in /  1021.9hPa Calm   2mph /  3.2km/h 83% 0.00in /  0mm 0 W/m2
00:20 51.3 °F /  10.7 °C 46.6 °F /  8.1 °C 30.19in /  1022.2hPa NW 1mph /  1.6km/h 2mph /  3.2km/h 84% 0.00in /  0mm 0 W/m2
00:30 51.1 °F /  10.6 °C 46.4 °F /  8 °C 30.18in /  1021.9hPa North 1mph /  1.6km/h 2mph /  3.2km/h 84% 0.00in /  0mm 0 W/m2
00:40 51.1 °F /  10.6 °C 46.4 °F /  8 °C 30.18in /  1021.9hPa Calm   2mph /  3.2km/h 84% 0.00in /  0mm 0 W/m2
00:50 50.8 °F /  10.4 °C 46.1 °F /  7.8 °C 30.19in /  1022.2hPa ENE 1mph /  1.6km/h 3mph /  4.8km/h 84% 0.00in /  0mm 0 W/m2
01:00 50.7 °F /  10.4 °C 46.1 °F /  7.8 °C 30.18in /  1021.9hPa NNE 3mph /  4.8km/h 5mph /  8km/h 84% 0.00in /  0mm 0 W/m2
01:10 51.1 °F /  10.6 °C 46.4 °F /  8 °C 30.18in /  1021.9hPa NE 1mph /  1.6km/h 5mph /  8km/h 84% 0.00in /  0mm 0 W/m2
01:20 51.1 °F /  10.6 °C 46.4 °F /  8 °C 30.19in /  1022.2hPa Calm   3mph /  4.8km/h 84% 0.00in /  0mm 0 W/m2
01:30 50.9 °F /  10.5 °C 46.2 °F /  7.9 °C 30.18in /  1021.9hPa North 2mph /  3.2km/h 5mph /  8km/h 84% 0.00in /  0mm 0 W/m2
01:40 51.3 °F /  10.7 °C 46.6 °F /  8.1 °C 30.19in /  1022.2hPa NE 1mph /  1.6km/h 7mph /  11.3km/h 84% 0.00in /  0mm 0 W/m2
01:50 51.1 °F /  10.6 °C 46.5 °F /  8.1 °C 30.19in /  1022.2hPa Calm   3mph /  4.8km/h 84% 0.00in /  0mm 0 W/m2
02:00 51.3 °F /  10.7 °C 46.6 °F /  8.1 °C 30.19in /  1022.2hPa Calm   2mph /  3.2km/h 84% 0.00in /  0mm 0 W/m2
02:10 51.3 °F /  10.7 °C 46.6 °F /  8.1 °C 30.18in /  1021.9hPa Calm   5mph /  8km/h 84% 0.00in /  0mm 0 W/m2
02:20 51.4 °F /  10.8 °C 46.8 °F /  8.2 °C 30.19in /  1022.2hPa East 1mph /  1.6km/h 4mph /  6.4km/h 84% 0.00in /  0mm 0 W/m2
02:30 51.3 °F /  10.7 °C 46.6 °F /  8.1 °C 30.19in /  1022.2hPa SE 1mph /  1.6km/h 4mph /  6.4km/h 84% 0.00in /  0mm 0 W/m2
02:40 51.4 °F /  10.8 °C 46.8 °F /  8.2 °C 30.19in /  1022.2hPa Calm   2mph /  3.2km/h 84% 0.00in /  0mm 0 W/m2
02:50 51.6 °F /  10.9 °C 46.9 °F /  8.3 °C 30.18in /  1021.9hPa Calm   2mph /  3.2km/h 84% 0.00in /  0mm 0 W/m2
03:00 51.7 °F /  10.9 °C 47.1 °F /  8.4 °C 30.18in /  1021.9hPa Calm   3mph /  4.8km/h 84% 0.00in /  0mm 0 W/m2
03:10 51.8 °F /  11 °C 47.1 °F /  8.4 °C 30.18in /  1021.9hPa SSE 3mph /  4.8km/h 5mph /  8km/h 84% 0.00in /  0mm 0 W/m2
03:20 51.6 °F /  10.9 °C 46.9 °F /  8.3 °C 30.17in /  1021.6hPa East 2mph /  3.2km/h 3mph /  4.8km/h 84% 0.00in /  0mm 0 W/m2
03:30 51.7 °F /  10.9 °C 47.1 °F /  8.4 °C 30.17in /  1021.6hPa NNE 1mph /  1.6km/h 2mph /  3.2km/h 84% 0.00in /  0mm 0 W/m2
03:40 51.6 °F /  10.9 °C 46.9 °F /  8.3 °C 30.18in /  1021.9hPa South 2mph /  3.2km/h 4mph /  6.4km/h 84% 0.00in /  0mm 0 W/m2
03:50 51.4 °F /  10.8 °C 46.8 °F /  8.2 °C 30.18in /  1021.9hPa ESE 3mph /  4.8km/h 5mph /  8km/h 84% 0.00in /  0mm 0 W/m2
04:00 51.4 °F /  10.8 °C 47.1 °F /  8.4 °C 30.17in /  1021.6hPa NE 2mph /  3.2km/h 6mph /  9.7km/h 85% 0.00in /  0mm 0 W/m2
04:10 51.6 °F /  10.9 °C 47.3 °F /  8.5 °C 30.17in /  1021.6hPa NNE 2mph /  3.2km/h 6mph /  9.7km/h 85% 0.00in /  0mm 0 W/m2
04:20 52 °F /  11.1 °C 47.6 °F /  8.7 °C 30.17in /  1021.6hPa NE 3mph /  4.8km/h 8mph /  12.9km/h 85% 0.00in /  0mm 0 W/m2
04:30 51.8 °F /  11 °C 47.4 °F /  8.6 °C 30.17in /  1021.6hPa SSE 2mph /  3.2km/h 6mph /  9.7km/h 85% 0.00in /  0mm 0 W/m2
04:40 52 °F /  11.1 °C 47.6 °F /  8.7 °C 30.17in /  1021.6hPa North 2mph /  3.2km/h 7mph /  11.3km/h 85% 0.00in /  0mm 0 W/m2
04:50 52.3 °F /  11.3 °C 47.6 °F /  8.7 °C 30.17in /  1021.6hPa North 1mph /  1.6km/h 8mph /  12.9km/h 84% 0.00in /  0mm 0 W/m2
05:00 52.5 °F /  11.4 °C 47.8 °F /  8.8 °C 30.17in /  1021.6hPa North 3mph /  4.8km/h 7mph /  11.3km/h 84% 0.00in /  0mm 0 W/m2
05:10 52.7 °F /  11.5 °C 48 °F /  8.9 °C 30.17in /  1021.6hPa North 5mph /  8km/h 10mph /  16.1km/h 84% 0.00in /  0mm 0 W/m2
05:20 52.9 °F /  11.6 °C 48.2 °F /  9 °C 30.17in /  1021.6hPa North 5mph /  8km/h 12mph /  19.3km/h 84% 0.00in /  0mm 0 W/m2
05:30 52.9 °F /  11.6 °C 47.9 °F /  8.8 °C 30.17in /  1021.6hPa North 6mph /  9.7km/h 13mph /  20.9km/h 83% 0.00in /  0mm 0 W/m2
05:40 52.9 °F /  11.6 °C 47.9 °F /  8.8 °C 30.17in /  1021.6hPa North 6mph /  9.7km/h 12mph /  19.3km/h 83% 0.00in /  0mm 0 W/m2
05:50 52.9 °F /  11.6 °C 47.9 °F /  8.8 °C 30.17in /  1021.6hPa North 5mph /  8km/h 10mph /  16.1km/h 83% 0.00in /  0mm 0 W/m2
06:00 52.7 °F /  11.5 °C 48 °F /  8.9 °C 30.17in /  1021.6hPa North 5mph /  8km/h 13mph /  20.9km/h 84% 0.00in /  0mm 0 W/m2
06:10 52.7 °F /  11.5 °C 48 °F /  8.9 °C 30.16in /  1021.2hPa North 7mph /  11.3km/h 14mph /  22.5km/h 84% 0.00in /  0mm 0 W/m2
06:20 52.5 °F /  11.4 °C 47.8 °F /  8.8 °C 30.16in /  1021.2hPa North 6mph /  9.7km/h 13mph /  20.9km/h 84% 0.00in /  0mm 0 W/m2
06:30 52.3 °F /  11.3 °C 47.6 °F /  8.7 °C 30.16in /  1021.2hPa NNE 7mph /  11.3km/h 14mph /  22.5km/h 84% 0.00in /  0mm 0 W/m2
06:40 52.2 °F /  11.2 °C 47.8 °F /  8.8 °C 30.17in /  1021.6hPa North 8mph /  12.9km/h 13mph /  20.9km/h 85% 0.00in /  0mm 2 W/m2
06:50 52.2 °F /  11.2 °C 47.8 °F /  8.8 °C 30.17in /  1021.6hPa North 7mph /  11.3km/h 13mph /  20.9km/h 85% 0.00in /  0mm 7 W/m2
07:00 52 °F /  11.1 °C 47.6 °F /  8.7 °C 30.17in /  1021.6hPa North 5mph /  8km/h 13mph /  20.9km/h 85% 0.00in /  0mm 12 W/m2
07:10 52 °F /  11.1 °C 47.6 °F /  8.7 °C 30.18in /  1021.9hPa North 5mph /  8km/h 13mph /  20.9km/h 85% 0.00in /  0mm 19 W/m2
07:20 51.8 °F /  11 °C 47.4 °F /  8.6 °C 30.18in /  1021.9hPa North 6mph /  9.7km/h 13mph /  20.9km/h 85% 0.00in /  0mm 26 W/m2
07:30 51.8 °F /  11 °C 47.4 °F /  8.6 °C 30.19in /  1022.2hPa North 5mph /  8km/h 12mph /  19.3km/h 85% 0.00in /  0mm 29 W/m2
07:40 51.8 °F /  11 °C 47.4 °F /  8.6 °C 30.19in /  1022.2hPa North 6mph /  9.7km/h 13mph /  20.9km/h 85% 0.00in /  0mm 32 W/m2
07:50 51.8 °F /  11 °C 47.4 °F /  8.6 °C 30.19in /  1022.2hPa North 7mph /  11.3km/h 14mph /  22.5km/h 85% 0.00in /  0mm 42 W/m2
08:00 51.8 °F /  11 °C 47.7 °F /  8.7 °C 30.19in /  1022.2hPa North 6mph /  9.7km/h 13mph /  20.9km/h 86% 0.00in /  0mm 58 W/m2
08:10 51.8 °F /  11 °C 47.7 °F /  8.7 °C 30.19in /  1022.2hPa North 6mph /  9.7km/h 13mph /  20.9km/h 86% 0.00in /  0mm 72 W/m2
08:20 51.8 °F /  11 °C 47.7 °F /  8.7 °C 30.19in /  1022.2hPa North 5mph /  8km/h 13mph /  20.9km/h 86% 0.00in /  0mm 96 W/m2
08:30 51.8 °F /  11 °C 47.7 °F /  8.7 °C 30.19in /  1022.2hPa North 5mph /  8km/h 12mph /  19.3km/h 86% 0.00in /  0mm 126 W/m2
08:40 52 °F /  11.1 °C 47.9 °F /  8.8 °C 30.19in /  1022.2hPa North 8mph /  12.9km/h 12mph /  19.3km/h 86% 0.00in /  0mm 141 W/m2
08:50 52.2 °F /  11.2 °C 48.1 °F /  8.9 °C 30.19in /  1022.2hPa North 6mph /  9.7km/h 13mph /  20.9km/h 86% 0.00in /  0mm 178 W/m2
09:00 52.3 °F /  11.3 °C 47.9 °F /  8.8 °C 30.19in /  1022.2hPa North 5mph /  8km/h 13mph /  20.9km/h 85% 0.00in /  0mm 180 W/m2
09:10 52.3 °F /  11.3 °C 48 °F /  8.9 °C 30.19in /  1022.2hPa North 5mph /  8km/h 12mph /  19.3km/h 85% 0.00in /  0mm 168 W/m2
09:20 52.5 °F /  11.4 °C 48.1 °F /  8.9 °C 30.19in /  1022.2hPa North 5mph /  8km/h 12mph /  19.3km/h 85% 0.00in /  0mm 185 W/m2
09:30 52.7 °F /  11.5 °C 48.3 °F /  9.1 °C 30.19in /  1022.2hPa North 6mph /  9.7km/h 14mph /  22.5km/h 85% 0.00in /  0mm 170 W/m2
09:40 52.5 °F /  11.4 °C 48.2 °F /  9 °C 30.19in /  1022.2hPa North 6mph /  9.7km/h 14mph /  22.5km/h 85% 0.00in /  0mm 172 W/m2
09:50 52.7 °F /  11.5 °C 48.3 °F /  9.1 °C 30.20in /  1022.6hPa North 5mph /  8km/h 12mph /  19.3km/h 85% 0.00in /  0mm 123 W/m2
10:00 52.7 °F /  11.5 °C 48.3 °F /  9.1 °C 30.20in /  1022.6hPa North 5mph /  8km/h 14mph /  22.5km/h 85% 0.00in /  0mm 112 W/m2
10:10 52.7 °F /  11.5 °C 48.3 °F /  9.1 °C 30.20in /  1022.6hPa North 6mph /  9.7km/h 12mph /  19.3km/h 85% 0.00in /  0mm 113 W/m2
10:20 52.7 °F /  11.5 °C 48.3 °F /  9.1 °C 30.20in /  1022.6hPa North 6mph /  9.7km/h 12mph /  19.3km/h 85% 0.00in /  0mm 106 W/m2
10:30 52.5 °F /  11.4 °C 48.2 °F /  9 °C 30.20in /  1022.6hPa North 5mph /  8km/h 14mph /  22.5km/h 85% 0.00in /  0mm 127 W/m2
10:40 52.5 °F /  11.4 °C 48.1 °F /  8.9 °C 30.20in /  1022.6hPa North 8mph /  12.9km/h 13mph /  20.9km/h 85% 0.00in /  0mm 103 W/m2
10:50 52.5 °F /  11.4 °C 48.1 °F /  8.9 °C 30.20in /  1022.6hPa North 5mph /  8km/h 13mph /  20.9km/h 85% 0.00in /  0mm 141 W/m2
11:00 52.7 °F /  11.5 °C 48.3 °F /  9.1 °C 30.20in /  1022.6hPa North 7mph /  11.3km/h 14mph /  22.5km/h 85% 0.00in /  0mm 158 W/m2
11:10 52.7 °F /  11.5 °C 48.3 °F /  9.1 °C 30.20in /  1022.6hPa North 5mph /  8km/h 15mph /  24.1km/h 85% 0.00in /  0mm 120 W/m2
11:20 52.7 °F /  11.5 °C 48 °F /  8.9 °C 30.19in /  1022.2hPa North 6mph /  9.7km/h 13mph /  20.9km/h 84% 0.00in /  0mm 103 W/m2
11:30 52.7 °F /  11.5 °C 48 °F /  8.9 °C 30.19in /  1022.2hPa North 6mph /  9.7km/h 14mph /  22.5km/h 84% 0.00in /  0mm 106 W/m2
11:40 53.1 °F /  11.7 °C 48.4 °F /  9.1 °C 30.19in /  1022.2hPa North 5mph /  8km/h 14mph /  22.5km/h 84% 0.00in /  0mm 138 W/m2
11:50 53.4 °F /  11.9 °C 48.7 °F /  9.3 °C 30.19in /  1022.2hPa North 7mph /  11.3km/h 13mph /  20.9km/h 84% 0.00in /  0mm 162 W/m2
12:00 53.9 °F /  12.2 °C 48.9 °F /  9.4 °C 30.19in /  1022.2hPa North 2mph /  3.2km/h 12mph /  19.3km/h 83% 0.00in /  0mm 126 W/m2
12:10 54.3 °F /  12.4 °C 48.6 °F /  9.2 °C 30.19in /  1022.2hPa ESE 3mph /  4.8km/h 9mph /  14.5km/h 81% 0.00in /  0mm 106 W/m2
12:20 54.9 °F /  12.7 °C 48.5 °F /  9.2 °C 30.19in /  1022.2hPa NE 2mph /  3.2km/h 14mph /  22.5km/h 79% 0.00in /  0mm 120 W/m2
12:30 55.2 °F /  12.9 °C 48.5 °F /  9.2 °C 30.19in /  1022.2hPa NE 2mph /  3.2km/h 8mph /  12.9km/h 78% 0.00in /  0mm 100 W/m2
12:40 55.4 °F /  13 °C 48.3 °F /  9.1 °C 30.19in /  1022.2hPa East 6mph /  9.7km/h 14mph /  22.5km/h 77% 0.00in /  0mm 119 W/m2
12:50 55.4 °F /  13 °C 48.7 °F /  9.3 °C 30.19in /  1022.2hPa East 6mph /  9.7km/h 15mph /  24.1km/h 78% 0.00in /  0mm 105 W/m2
13:00 55.6 °F /  13.1 °C 48.5 °F /  9.2 °C 30.18in /  1021.9hPa ENE 5mph /  8km/h 21mph /  33.8km/h 77% 0.00in /  0mm 124 W/m2
13:10 55.8 °F /  13.2 °C 49 °F /  9.4 °C 30.18in /  1021.9hPa East 5mph /  8km/h 22mph /  35.4km/h 78% 0.00in /  0mm 117 W/m2
13:20 55.9 °F /  13.3 °C 49.2 °F /  9.6 °C 30.18in /  1021.9hPa NE 3mph /  4.8km/h 17mph /  27.4km/h 78% 0.00in /  0mm 103 W/m2
13:30 56.1 °F /  13.4 °C 49.4 °F /  9.7 °C 30.17in /  1021.6hPa ENE 2mph /  3.2km/h 12mph /  19.3km/h 78% 0.00in /  0mm 112 W/m2
13:40 56.1 °F /  13.4 °C 50 °F /  10 °C 30.17in /  1021.6hPa NNE 3mph /  4.8km/h 12mph /  19.3km/h 80% 0.00in /  0mm 121 W/m2
13:50 56.3 °F /  13.5 °C 50.2 °F /  10.1 °C 30.17in /  1021.6hPa NW 2mph /  3.2km/h 8mph /  12.9km/h 80% 0.00in /  0mm 117 W/m2
14:00 56.3 °F /  13.5 °C 49.9 °F /  9.9 °C 30.17in /  1021.6hPa NNE 1mph /  1.6km/h 10mph /  16.1km/h 79% 0.00in /  0mm 108 W/m2
14:10 56.3 °F /  13.5 °C 50.2 °F /  10.1 °C 30.17in /  1021.6hPa NNE 2mph /  3.2km/h 9mph /  14.5km/h 80% 0.00in /  0mm 93 W/m2
14:20 56.3 °F /  13.5 °C 50.2 °F /  10.1 °C 30.17in /  1021.6hPa NNE 2mph /  3.2km/h 10mph /  16.1km/h 80% 0.00in /  0mm 100 W/m2
14:30 56.3 °F /  13.5 °C 50.2 °F /  10.1 °C 30.17in /  1021.6hPa NNE 5mph /  8km/h 12mph /  19.3km/h 80% 0.00in /  0mm 79 W/m2
14:40 56.1 °F /  13.4 °C 50.4 °F /  10.2 °C 30.17in /  1021.6hPa North 3mph /  4.8km/h 8mph /  12.9km/h 81% 0.00in /  0mm 76 W/m2
14:50 55.9 °F /  13.3 °C 51.2 °F /  10.7 °C 30.17in /  1021.6hPa NNE 2mph /  3.2km/h 7mph /  11.3km/h 84% 0.00in /  0mm 83 W/m2
15:00 55.6 °F /  13.1 °C 51.1 °F /  10.6 °C 30.17in /  1021.6hPa NNE 5mph /  8km/h 7mph /  11.3km/h 85% 0.00in /  0mm 77 W/m2
15:10 55.2 °F /  12.9 °C 50.8 °F /  10.4 °C 30.18in /  1021.9hPa North 3mph /  4.8km/h 9mph /  14.5km/h 85% 0.00in /  0mm 64 W/m2
15:20 55 °F /  12.8 °C 50.6 °F /  10.3 °C 30.18in /  1021.9hPa North 3mph /  4.8km/h 9mph /  14.5km/h 85% 0.00in /  0mm 77 W/m2
15:30 54.9 °F /  12.7 °C 50.8 °F /  10.4 °C 30.17in /  1021.6hPa North 5mph /  8km/h 9mph /  14.5km/h 86% 0.00in /  0mm 75 W/m2
15:40 54.7 °F /  12.6 °C 51.2 °F /  10.7 °C 30.18in /  1021.9hPa North 1mph /  1.6km/h 7mph /  11.3km/h 88% 0.00in /  0mm 33 W/m2
15:50 54.3 °F /  12.4 °C 50.8 °F /  10.4 °C 30.18in /  1021.9hPa North 5mph /  8km/h 8mph /  12.9km/h 88% 0.00in /  0mm 26 W/m2
16:00 54.1 °F /  12.3 °C 50.7 °F /  10.4 °C 30.19in /  1022.2hPa North 3mph /  4.8km/h 10mph /  16.1km/h 88% 0.00in /  0mm 31 W/m2
16:10 54 °F /  12.2 °C 50.8 °F /  10.4 °C 30.19in /  1022.2hPa North 5mph /  8km/h 9mph /  14.5km/h 89% 0.01in /  0.25mm 42 W/m2
16:20 54 °F /  12.2 °C 50.8 °F /  10.4 °C 30.19in /  1022.2hPa NNE 2mph /  3.2km/h 6mph /  9.7km/h 89% 0.00in /  0mm 42 W/m2
16:30 53.8 °F /  12.1 °C 50.9 °F /  10.5 °C 30.19in /  1022.2hPa North 6mph /  9.7km/h 9mph /  14.5km/h 90% 0.00in /  0mm 37 W/m2
16:40 53.6 °F /  12 °C 50.7 °F /  10.4 °C 30.19in /  1022.2hPa NNE 2mph /  3.2km/h 9mph /  14.5km/h 90% 0.00in /  0mm 27 W/m2
16:50 53.4 °F /  11.9 °C 50.6 °F /  10.3 °C 30.19in /  1022.2hPa NW 2mph /  3.2km/h 6mph /  9.7km/h 90% 0.00in /  0mm 26 W/m2
17:00 53.3 °F /  11.8 °C 50.4 °F /  10.2 °C 30.19in /  1022.2hPa North 2mph /  3.2km/h 8mph /  12.9km/h 90% 0.00in /  0mm 16 W/m2
17:10 53.2 °F /  11.8 °C 50.4 °F /  10.2 °C 30.19in /  1022.2hPa North 3mph /  4.8km/h 8mph /  12.9km/h 90% 0.00in /  0mm 13 W/m2
17:20 53.2 °F /  11.8 °C 50.4 °F /  10.2 °C 30.19in /  1022.2hPa North 6mph /  9.7km/h 9mph /  14.5km/h 90% 0.00in /  0mm 14 W/m2
17:30 53.1 °F /  11.7 °C 50.2 °F /  10.1 °C 30.19in /  1022.2hPa North 5mph /  8km/h 9mph /  14.5km/h 90% 0.00in /  0mm 6 W/m2
17:40 53.1 °F /  11.7 °C 50.2 °F /  10.1 °C 30.19in /  1022.2hPa North 5mph /  8km/h 8mph /  12.9km/h 90% 0.00in /  0mm 6 W/m2
17:50 52.9 °F /  11.6 °C 49.7 °F /  9.8 °C 30.19in /  1022.2hPa North 3mph /  4.8km/h 8mph /  12.9km/h 89% 0.00in /  0mm 4 W/m2
18:00 52.9 °F /  11.6 °C 49.4 °F /  9.7 °C 30.19in /  1022.2hPa North 2mph /  3.2km/h 8mph /  12.9km/h 88% 0.00in /  0mm 2 W/m2
18:10 52.9 °F /  11.6 °C 49.4 °F /  9.7 °C 30.20in /  1022.6hPa North 3mph /  4.8km/h 9mph /  14.5km/h 88% 0.00in /  0mm 0 W/m2
18:20 52.9 °F /  11.6 °C 48.8 °F /  9.3 °C 30.20in /  1022.6hPa North 5mph /  8km/h 9mph /  14.5km/h 86% 0.00in /  0mm 0 W/m2
18:30 52.9 °F /  11.6 °C 49.4 °F /  9.7 °C 30.20in /  1022.6hPa NNE 2mph /  3.2km/h 9mph /  14.5km/h 88% 0.00in /  0mm 0 W/m2
18:40 52.9 °F /  11.6 °C 48.8 °F /  9.3 °C 30.20in /  1022.6hPa North 3mph /  4.8km/h 9mph /  14.5km/h 86% 0.00in /  0mm 0 W/m2
18:50 53.1 °F /  11.7 °C 49 °F /  9.4 °C 30.21in /  1022.9hPa North 3mph /  4.8km/h 6mph /  9.7km/h 86% 0.00in /  0mm 0 W/m2
19:00 53.1 °F /  11.7 °C 49 °F /  9.4 °C 30.21in /  1022.9hPa North 5mph /  8km/h 8mph /  12.9km/h 86% 0.00in /  0mm 0 W/m2
19:10 53.1 °F /  11.7 °C 49 °F /  9.4 °C 30.21in /  1022.9hPa North 3mph /  4.8km/h 6mph /  9.7km/h 86% 0.00in /  0mm 0 W/m2
19:20 53.2 °F /  11.8 °C 48.8 °F /  9.3 °C 30.21in /  1022.9hPa NNE 2mph /  3.2km/h 7mph /  11.3km/h 85% 0.00in /  0mm 0 W/m2
19:30 53.2 °F /  11.8 °C 48.8 °F /  9.3 °C 30.21in /  1022.9hPa NNE 2mph /  3.2km/h 8mph /  12.9km/h 85% 0.00in /  0mm 0 W/m2
19:40 53.2 °F /  11.8 °C 48.8 °F /  9.3 °C 30.21in /  1022.9hPa NNE 3mph /  4.8km/h 12mph /  19.3km/h 85% 0.00in /  0mm 0 W/m2
19:50 53.4 °F /  11.9 °C 49 °F /  9.4 °C 30.21in /  1022.9hPa NE 2mph /  3.2km/h 15mph /  24.1km/h 85% 0.00in /  0mm 0 W/m2
20:00 53.4 °F /  11.9 °C 49 °F /  9.4 °C 30.21in /  1022.9hPa North 2mph /  3.2km/h 14mph /  22.5km/h 85% 0.00in /  0mm 0 W/m2
20:10 53.2 °F /  11.8 °C 48.5 °F /  9.2 °C 30.22in /  1023.2hPa NNE 2mph /  3.2km/h 11mph /  17.7km/h 84% 0.00in /  0mm 0 W/m2
20:20 53.4 °F /  11.9 °C 48.7 °F /  9.3 °C 30.21in /  1022.9hPa North 1mph /  1.6km/h 7mph /  11.3km/h 84% 0.00in /  0mm 0 W/m2
20:30 53.2 °F /  11.8 °C 48.5 °F /  9.2 °C 30.21in /  1022.9hPa NNE 3mph /  4.8km/h 12mph /  19.3km/h 84% 0.00in /  0mm 0 W/m2
20:40 53.2 °F /  11.8 °C 48.5 °F /  9.2 °C 30.21in /  1022.9hPa North 2mph /  3.2km/h 9mph /  14.5km/h 84% 0.00in /  0mm 0 W/m2
20:50 53.2 °F /  11.8 °C 48.5 °F /  9.2 °C 30.22in /  1023.2hPa North 2mph /  3.2km/h 12mph /  19.3km/h 84% 0.00in /  0mm 0 W/m2
21:00 53.2 °F /  11.8 °C 48.5 °F /  9.2 °C 30.22in /  1023.2hPa NNE 3mph /  4.8km/h 12mph /  19.3km/h 84% 0.00in /  0mm 0 W/m2
21:10 53.2 °F /  11.8 °C 48.5 °F /  9.2 °C 30.22in /  1023.2hPa North 1mph /  1.6km/h 6mph /  9.7km/h 84% 0.00in /  0mm 0 W/m2
21:20 53.1 °F /  11.7 °C 48.4 °F /  9.1 °C 30.22in /  1023.2hPa NNW 6mph /  9.7km/h 12mph /  19.3km/h 84% 0.00in /  0mm 0 W/m2
21:30 52.9 °F /  11.6 °C 48.2 °F /  9 °C 30.22in /  1023.2hPa North 5mph /  8km/h 12mph /  19.3km/h 84% 0.00in /  0mm 0 W/m2
21:40 52.9 °F /  11.6 °C 48.5 °F /  9.2 °C 30.22in /  1023.2hPa North 5mph /  8km/h 8mph /  12.9km/h 85% 0.00in /  0mm 0 W/m2
21:50 52.7 °F /  11.5 °C 48.3 °F /  9.1 °C 30.22in /  1023.2hPa North 2mph /  3.2km/h 8mph /  12.9km/h 85% 0.00in /  0mm 0 W/m2
22:00 52.7 °F /  11.5 °C 48.3 °F /  9.1 °C 30.22in /  1023.2hPa North 3mph /  4.8km/h 8mph /  12.9km/h 85% 0.00in /  0mm 0 W/m2
22:10 52.5 °F /  11.4 °C 48.1 °F /  8.9 °C 30.22in /  1023.2hPa North 2mph /  3.2km/h 8mph /  12.9km/h 85% 0.00in /  0mm 0 W/m2
22:20 52.5 °F /  11.4 °C 48.1 °F /  8.9 °C 30.22in /  1023.2hPa North 5mph /  8km/h 8mph /  12.9km/h 85% 0.00in /  0mm 0 W/m2
22:30 52.3 °F /  11.3 °C 48.3 °F /  9.1 °C 30.22in /  1023.2hPa North 6mph /  9.7km/h 11mph /  17.7km/h 86% 0.00in /  0mm 0 W/m2
22:40 52.2 °F /  11.2 °C 48.1 °F /  8.9 °C 30.22in /  1023.2hPa North 6mph /  9.7km/h 12mph /  19.3km/h 86% 0.00in /  0mm 0 W/m2
22:50 52 °F /  11.1 °C 47.9 °F /  8.8 °C 30.22in /  1023.2hPa North 3mph /  4.8km/h 8mph /  12.9km/h 86% 0.00in /  0mm 0 W/m2
23:00 52 °F /  11.1 °C 47.9 °F /  8.8 °C 30.22in /  1023.2hPa North 5mph /  8km/h 7mph /  11.3km/h 86% 0.00in /  0mm 0 W/m2
23:10 52 °F /  11.1 °C 47.9 °F /  8.8 °C 30.22in /  1023.2hPa North 3mph /  4.8km/h 8mph /  12.9km/h 86% 0.00in /  0mm 0 W/m2
23:20 51.8 °F /  11 °C 48.4 °F /  9.1 °C 30.22in /  1023.2hPa North 5mph /  8km/h 13mph /  20.9km/h 88% 0.00in /  0mm 0 W/m2
23:30 51.6 °F /  10.9 °C 48.5 °F /  9.2 °C 30.22in /  1023.2hPa North 3mph /  4.8km/h 8mph /  12.9km/h 89% 0.00in /  0mm 0 W/m2
23:40 51.4 °F /  10.8 °C 48.6 °F /  9.2 °C 30.22in /  1023.2hPa North 3mph /  4.8km/h 8mph /  12.9km/h 90% 0.00in /  0mm 0 W/m2
23:50 51.3 °F /  10.7 °C 48.4 °F /  9.1 °C 30.22in /  1023.2hPa North 3mph /  4.8km/h 8mph /  12.9km/h 90% 0.00in /  0mm 0 W/m2
Knjazevac, Serbia
Compliments of Weather Underground - 2 mb